createdAt,value
2023-01-15T00:01:24.614Z,0.80
2023-01-15T00:03:52.575Z,0.35
2023-01-15T00:06:20.647Z,0.20
2023-01-15T00:08:48.153Z,0.45
2023-01-15T00:11:15.331Z,0.38
2023-01-15T00:13:42.486Z,0.20
2023-01-15T00:16:28.106Z,0.30
2023-01-15T00:18:57.609Z,1.92
2023-01-15T00:21:25.857Z,0.30
2023-01-15T00:24:11.467Z,0.88
2023-01-15T00:26:57.512Z,1.10
2023-01-15T00:29:25.466Z,0.20
2023-01-15T00:32:02.096Z,0.32
2023-01-15T00:34:29.941Z,0.17
2023-01-15T00:36:57.318Z,0.60
2023-01-15T00:39:24.457Z,0.20
2023-01-15T00:41:51.701Z,0.65
2023-01-15T00:44:19.035Z,0.40
2023-01-15T00:46:46.012Z,0.25
2023-01-15T00:49:12.889Z,0.28
2023-01-15T00:51:39.725Z,0.55
2023-01-15T00:54:06.628Z,1.08
2023-01-15T00:56:33.427Z,0.30
2023-01-15T00:59:02.869Z,1.10
2023-01-15T01:01:32.093Z,0.50
2023-01-15T01:03:59.114Z,0.45
2023-01-15T01:06:25.948Z,0.30
2023-01-15T01:08:52.802Z,0.30
2023-01-15T01:11:23.999Z,0.30
2023-01-15T01:13:50.889Z,0.30
2023-01-15T01:16:33.496Z,0.20
2023-01-15T01:19:03.763Z,0.45
2023-01-15T01:21:31.312Z,0.20
2023-01-15T01:24:01.669Z,0.20
2023-01-15T01:26:29.441Z,0.20
2023-01-15T01:28:57.482Z,0.32
2023-01-15T01:31:24.532Z,0.22
2023-01-15T01:33:53.566Z,0.20
2023-01-15T01:36:21.241Z,0.10
2023-01-15T01:38:51.737Z,0.10
2023-01-15T01:41:19.559Z,0.20
2023-01-15T01:43:53.846Z,0.10
2023-01-15T01:46:20.748Z,0.10
2023-01-15T01:48:50.912Z,0.10
2023-01-15T01:51:20.216Z,0.25
2023-01-15T01:53:47.365Z,0.10
2023-01-15T01:56:17.730Z,0.10
2023-01-15T01:58:48.222Z,0.00
2023-01-15T02:01:15.540Z,0.10
2023-01-15T02:03:42.550Z,0.20
2023-01-15T02:06:11.613Z,0.20
2023-01-15T02:08:39.660Z,0.10
2023-01-15T02:11:08.036Z,0.10
2023-01-15T02:13:54.543Z,0.10
2023-01-15T02:16:36.540Z,0.10
2023-01-15T02:19:33.450Z,0.15
2023-01-15T02:22:14.811Z,0.20
2023-01-15T02:24:50.478Z,0.10
2023-01-15T02:27:20.772Z,0.10
2023-01-15T02:30:06.858Z,0.20
2023-01-15T02:32:42.644Z,0.20
2023-01-15T02:35:43.411Z,0.13
2023-01-15T02:38:15.237Z,0.50
2023-01-15T02:40:43.537Z,0.25
2023-01-15T02:43:13.211Z,0.10
2023-01-15T02:45:43.669Z,0.25
2023-01-15T02:48:13.736Z,0.13
2023-01-15T02:50:45.542Z,0.10
2023-01-15T02:53:19.074Z,0.13
2023-01-15T02:55:50.234Z,0.25
2023-01-15T02:58:22.398Z,0.10
2023-01-15T03:00:51.337Z,0.10
2023-01-15T03:03:47.836Z,0.10
2023-01-15T03:06:18.156Z,0.32
2023-01-15T03:08:45.684Z,0.20
2023-01-15T03:11:15.129Z,0.20
2023-01-15T03:13:42.552Z,0.10
2023-01-15T03:16:35.663Z,0.10
2023-01-15T03:19:20.862Z,0.17
2023-01-15T03:22:03.033Z,0.10
2023-01-15T03:24:39.477Z,0.20
2023-01-15T03:27:07.043Z,0.32
2023-01-15T03:29:38.801Z,0.10
2023-01-15T03:32:06.898Z,0.13
2023-01-15T03:34:54.841Z,0.10
2023-01-15T03:37:24.304Z,0.10
2023-01-15T03:39:52.305Z,0.20
2023-01-15T03:42:40.874Z,0.10
2023-01-15T03:45:16.442Z,0.20
2023-01-15T03:47:50.305Z,0.15
2023-01-15T03:50:53.068Z,0.20
2023-01-15T03:53:31.031Z,0.10
2023-01-15T03:56:13.218Z,0.10
2023-01-15T03:58:47.913Z,0.10
2023-01-15T04:01:19.836Z,0.17
2023-01-15T04:03:50.050Z,0.10
2023-01-15T04:06:18.294Z,0.15
2023-01-15T04:08:46.735Z,0.52
2023-01-15T04:11:13.588Z,0.10
2023-01-15T04:13:40.412Z,0.10
2023-01-15T04:16:07.512Z,0.10
2023-01-15T04:18:34.390Z,0.10
2023-01-15T04:21:01.738Z,0.13
2023-01-15T04:23:28.564Z,0.10
2023-01-15T04:25:55.293Z,0.10
2023-01-15T04:28:22.063Z,0.10
2023-01-15T04:30:48.904Z,0.10
2023-01-15T04:33:15.702Z,0.13
2023-01-15T04:35:42.851Z,0.15
2023-01-15T04:38:09.625Z,0.22
2023-01-15T04:40:54.931Z,0.20
2023-01-15T04:43:40.506Z,0.10
2023-01-15T04:46:07.376Z,0.10
2023-01-15T04:48:34.196Z,0.10
2023-01-15T04:51:07.649Z,0.10
2023-01-15T04:53:34.549Z,0.10
2023-01-15T04:56:02.297Z,0.10
2023-01-15T04:58:29.877Z,0.70
2023-01-15T05:00:57.340Z,0.10
2023-01-15T05:03:24.254Z,0.17
2023-01-15T05:05:51.121Z,0.10
2023-01-15T05:08:17.934Z,0.10
2023-01-15T05:10:44.755Z,0.10
2023-01-15T05:13:11.607Z,0.10
2023-01-15T05:15:40.701Z,0.10
2023-01-15T05:18:07.589Z,0.15
2023-01-15T05:20:37.487Z,0.10
2023-01-15T05:23:04.314Z,0.10
2023-01-15T05:25:31.113Z,0.15
2023-01-15T05:27:57.941Z,0.10
2023-01-15T05:30:24.642Z,0.10
2023-01-15T05:32:52.120Z,0.08
2023-01-15T05:35:18.961Z,0.10
2023-01-15T05:37:45.681Z,0.10
2023-01-15T05:40:12.656Z,0.10
2023-01-15T05:42:39.401Z,0.10
2023-01-15T05:45:06.809Z,0.10
2023-01-15T05:47:35.788Z,0.10
2023-01-15T05:50:02.642Z,0.10
2023-01-15T05:52:29.384Z,0.05
2023-01-15T05:54:56.170Z,0.10
2023-01-15T05:57:24.376Z,0.10
2023-01-15T05:59:53.405Z,0.10
2023-01-15T06:02:20.267Z,0.10
2023-01-15T06:04:47.186Z,0.10
2023-01-15T06:07:14.022Z,0.20
2023-01-15T06:09:40.787Z,0.10
2023-01-15T06:12:07.662Z,0.73
2023-01-15T06:14:34.548Z,0.10
2023-01-15T06:17:01.323Z,0.10
2023-01-15T06:19:28.115Z,0.10
2023-01-15T06:21:54.934Z,0.20
2023-01-15T06:24:21.871Z,0.10
2023-01-15T06:26:48.656Z,0.10
2023-01-15T06:29:18.753Z,0.10
2023-01-15T06:31:46.157Z,0.10
2023-01-15T06:34:12.999Z,0.10
2023-01-15T06:36:39.722Z,0.10
2023-01-15T06:39:06.476Z,0.22
2023-01-15T06:41:52.111Z,0.10
2023-01-15T06:44:37.917Z,0.10
2023-01-15T06:47:23.256Z,0.20
2023-01-15T06:49:55.070Z,0.10
2023-01-15T06:52:23.330Z,0.10
2023-01-15T06:54:50.251Z,0.15
2023-01-15T06:57:18.940Z,0.10
2023-01-15T06:59:46.090Z,0.10
2023-01-15T07:02:12.985Z,0.20
2023-01-15T07:04:40.002Z,0.20
2023-01-15T07:07:06.847Z,0.17
2023-01-15T07:09:33.714Z,0.20
2023-01-15T07:12:00.546Z,0.22
2023-01-15T07:14:31.311Z,0.20
2023-01-15T07:16:59.347Z,0.10
2023-01-15T07:19:27.369Z,0.13
2023-01-15T07:21:54.531Z,0.10
2023-01-15T07:24:21.342Z,0.10
2023-01-15T07:26:48.134Z,0.10
2023-01-15T07:29:14.961Z,0.10
2023-01-15T07:31:41.971Z,0.10
2023-01-15T07:34:09.942Z,0.10
2023-01-15T07:36:37.229Z,0.10
2023-01-15T07:39:05.622Z,0.10
2023-01-15T07:41:51.199Z,0.10
2023-01-15T07:44:36.800Z,0.20
2023-01-15T07:47:22.290Z,0.20
2023-01-15T07:49:50.023Z,0.17
2023-01-15T07:52:19.871Z,0.20
2023-01-15T07:54:48.295Z,0.20
2023-01-15T07:57:18.804Z,0.17
2023-01-15T07:59:45.593Z,0.20
2023-01-15T08:02:13.184Z,0.20
2023-01-15T08:04:40.465Z,0.10
2023-01-15T08:07:08.334Z,0.28
2023-01-15T08:09:35.324Z,0.17
2023-01-15T08:12:22.681Z,0.35
2023-01-15T08:15:08.289Z,0.10
2023-01-15T08:17:36.354Z,0.22
2023-01-15T08:20:05.713Z,0.20
2023-01-15T08:22:32.713Z,0.10
2023-01-15T08:25:00.579Z,0.20
2023-01-15T08:27:28.983Z,0.28
2023-01-15T08:29:56.786Z,0.20
2023-01-15T08:32:25.105Z,0.15
2023-01-15T08:34:52.185Z,0.10
2023-01-15T08:37:18.990Z,0.13
2023-01-15T08:39:46.211Z,0.10
2023-01-15T08:42:13.435Z,0.10
2023-01-15T08:44:40.314Z,0.10
2023-01-15T08:47:07.166Z,0.17
2023-01-15T08:49:34.078Z,0.20
2023-01-15T08:52:01.114Z,0.10
2023-01-15T08:54:27.985Z,0.20
2023-01-15T08:56:54.805Z,0.20
2023-01-15T08:59:21.782Z,0.30
2023-01-15T09:01:48.724Z,0.20
2023-01-15T09:04:17.068Z,0.20
2023-01-15T09:06:44.922Z,0.25
2023-01-15T09:09:12.213Z,1.30
2023-01-15T09:11:40.817Z,0.40
2023-01-15T09:14:08.533Z,0.60
2023-01-15T09:16:56.015Z,0.95
2023-01-15T09:19:22.913Z,1.23
2023-01-15T09:21:49.681Z,0.30
2023-01-15T09:24:16.428Z,1.15
2023-01-15T09:26:43.166Z,0.40
2023-01-15T09:29:10.872Z,1.58
2023-01-15T09:31:37.857Z,1.15
2023-01-15T09:34:04.827Z,1.40
2023-01-15T09:36:33.760Z,0.63
2023-01-15T09:39:03.002Z,1.23
2023-01-15T09:42:05.537Z,0.70
2023-01-15T09:44:35.243Z,1.00
2023-01-15T09:47:07.438Z,0.30
2023-01-15T09:49:57.037Z,0.30
2023-01-15T09:52:51.355Z,0.30
2023-01-15T09:55:27.349Z,0.17
2023-01-15T09:57:57.715Z,0.20
2023-01-15T10:00:27.206Z,0.20
2023-01-15T10:03:26.313Z,0.20
2023-01-15T10:06:21.515Z,0.25
2023-01-15T10:08:50.587Z,0.47
2023-01-15T10:11:20.241Z,0.20
2023-01-15T10:14:03.248Z,1.25
2023-01-15T10:16:33.795Z,0.57
2023-01-15T10:19:02.693Z,2.08
2023-01-15T10:21:51.894Z,0.82
2023-01-15T10:24:32.297Z,0.25
2023-01-15T10:27:00.263Z,0.47
2023-01-15T10:29:51.213Z,0.38
2023-01-15T10:33:00.703Z,0.55
2023-01-15T10:35:48.903Z,0.28
2023-01-15T10:39:00.500Z,0.10
2023-01-15T10:42:01.274Z,0.10
2023-01-15T10:44:48.816Z,0.22
2023-01-15T10:47:22.221Z,0.68
2023-01-15T10:49:50.714Z,1.85
2023-01-15T10:52:30.857Z,0.20
2023-01-15T10:55:14.076Z,1.13
2023-01-15T10:58:08.961Z,0.10
2023-01-15T11:00:38.671Z,0.70
2023-01-15T11:03:15.150Z,0.30
2023-01-15T11:05:45.712Z,0.70
2023-01-15T11:09:06.452Z,0.30
2023-01-15T11:11:22.413Z,0.13
2023-01-15T11:14:12.644Z,0.28
2023-01-15T11:17:02.133Z,0.20
2023-01-15T11:19:40.521Z,0.73
2023-01-15T11:22:18.665Z,0.88
2023-01-15T11:25:00.891Z,0.60
2023-01-15T11:27:31.060Z,0.20
2023-01-15T11:29:59.908Z,0.43
2023-01-15T11:32:36.078Z,0.22
2023-01-15T11:35:09.076Z,0.65
2023-01-15T11:37:35.834Z,1.65
2023-01-15T11:40:08.192Z,0.43
2023-01-15T11:42:57.572Z,1.33
2023-01-15T11:45:43.546Z,0.60
2023-01-15T11:48:40.845Z,0.50
2023-01-15T11:51:17.972Z,1.65
2023-01-15T11:53:46.558Z,5.30
2023-01-15T11:56:34.759Z,1.75
2023-01-15T11:59:04.643Z,1.30
2023-01-15T12:01:42.291Z,0.22
2023-01-15T12:04:28.702Z,2.00
2023-01-15T12:06:55.930Z,1.35
2023-01-15T12:10:41.429Z,2.55
2023-01-15T12:13:11.125Z,2.47
2023-01-15T12:16:02.176Z,2.60
2023-01-15T12:18:47.728Z,3.42
2023-01-15T12:21:31.014Z,1.45
2023-01-15T12:24:29.059Z,1.52
2023-01-15T12:26:58.529Z,0.60
2023-01-15T12:29:31.540Z,1.67
2023-01-15T12:32:21.350Z,5.93
2023-01-15T12:34:59.500Z,2.08
2023-01-15T12:37:35.979Z,1.65
2023-01-15T12:40:15.095Z,2.55
2023-01-15T12:43:06.417Z,0.80
2023-01-15T12:45:49.693Z,0.60
2023-01-15T12:48:37.335Z,0.77
2023-01-15T12:51:05.860Z,1.75
2023-01-15T12:53:53.143Z,2.08
2023-01-15T12:56:32.796Z,2.78
2023-01-15T12:59:12.525Z,2.55
2023-01-15T13:02:09.675Z,3.20
2023-01-15T13:05:09.051Z,1.50
2023-01-15T13:07:49.520Z,0.52
2023-01-15T13:10:29.547Z,1.58
2023-01-15T13:13:21.783Z,2.75
2023-01-15T13:16:04.698Z,3.33
2023-01-15T13:18:56.424Z,1.40
2023-01-15T13:21:26.335Z,1.75
2023-01-15T13:24:01.818Z,3.15
2023-01-15T13:26:47.020Z,5.25
2023-01-15T13:29:33.176Z,3.28
2023-01-15T13:32:19.654Z,1.35
2023-01-15T13:34:51.575Z,3.30
2023-01-15T13:37:45.915Z,4.05
2023-01-15T13:40:18.816Z,3.22
2023-01-15T13:42:48.629Z,1.88
2023-01-15T13:45:28.243Z,1.27
2023-01-15T13:48:07.572Z,2.75
2023-01-15T13:50:39.766Z,1.25
2023-01-15T13:53:15.964Z,0.80
2023-01-15T13:55:51.465Z,3.15
2023-01-15T13:58:32.719Z,3.55
2023-01-15T14:01:22.543Z,2.60
2023-01-15T14:04:05.780Z,2.83
2023-01-15T14:06:41.189Z,1.58
2023-01-15T14:09:23.174Z,3.53
2023-01-15T14:12:08.326Z,1.27
2023-01-15T14:14:57.020Z,2.63
2023-01-15T14:17:51.156Z,1.95
2023-01-15T14:21:07.613Z,2.33
2023-01-15T14:23:40.634Z,1.83
2023-01-15T14:26:19.598Z,3.90
2023-01-15T14:28:54.956Z,3.13
2023-01-15T14:31:34.644Z,1.48
2023-01-15T14:34:04.767Z,1.25
2023-01-15T14:36:40.210Z,0.95
2023-01-15T14:39:30.953Z,0.52
2023-01-15T14:42:44.874Z,2.78
2023-01-15T14:45:11.741Z,4.43
2023-01-15T14:47:53.426Z,2.63
2023-01-15T14:50:44.109Z,2.50
2023-01-15T14:53:13.831Z,2.38
2023-01-15T14:55:48.343Z,1.33
2023-01-15T14:58:50.417Z,2.60
2023-01-15T15:01:44.901Z,0.75
2023-01-15T15:04:20.946Z,1.95
2023-01-15T15:07:01.052Z,2.40
2023-01-15T15:09:39.671Z,2.22
2023-01-15T15:12:30.007Z,0.80
2023-01-15T15:15:01.884Z,1.70
2023-01-15T15:17:37.518Z,2.15
2023-01-15T15:20:18.798Z,1.60
2023-01-15T15:22:49.302Z,2.33
2023-01-15T15:25:25.705Z,1.38
2023-01-15T15:28:21.675Z,1.70
2023-01-15T15:30:49.209Z,1.25
2023-01-15T15:33:22.697Z,1.35
2023-01-15T15:35:59.305Z,1.50
2023-01-15T15:38:26.754Z,2.63
2023-01-15T15:40:56.771Z,1.98
2023-01-15T15:44:13.514Z,1.70
2023-01-15T15:47:08.253Z,3.90
2023-01-15T15:49:41.770Z,2.08
2023-01-15T15:52:24.017Z,1.25
2023-01-15T15:55:03.605Z,1.02
2023-01-15T15:57:32.418Z,1.20
2023-01-15T16:00:00.364Z,1.17
2023-01-15T16:02:41.390Z,0.40
2023-01-15T16:05:31.625Z,1.05
2023-01-15T16:08:18.910Z,0.63
2023-01-15T16:10:50.968Z,0.63
2023-01-15T16:13:31.030Z,0.65
2023-01-15T16:16:00.062Z,0.52
2023-01-15T16:18:36.196Z,0.47
2023-01-15T16:21:03.439Z,0.38
2023-01-15T16:23:31.431Z,2.08
2023-01-15T16:26:01.833Z,0.52
2023-01-15T16:28:41.498Z,0.95
2023-01-15T16:31:08.816Z,0.30
2023-01-15T16:33:37.185Z,2.25
2023-01-15T16:36:06.229Z,0.30
2023-01-15T16:38:34.783Z,1.25
2023-01-15T16:41:04.661Z,1.58
2023-01-15T16:43:32.189Z,0.57
2023-01-15T16:46:15.799Z,2.10
2023-01-15T16:48:47.082Z,1.63
2023-01-15T16:51:33.919Z,0.70
2023-01-15T16:54:04.300Z,0.50
2023-01-15T16:56:39.985Z,2.95
2023-01-15T16:59:18.865Z,0.68
2023-01-15T17:01:52.488Z,3.30
2023-01-15T17:04:35.975Z,5.03
2023-01-15T17:07:08.544Z,2.08
2023-01-15T17:09:37.940Z,1.92
2023-01-15T17:12:15.557Z,1.92
2023-01-15T17:14:42.453Z,2.50
2023-01-15T17:17:15.255Z,1.83
2023-01-15T17:19:43.020Z,1.13
2023-01-15T17:22:23.869Z,0.70
2023-01-15T17:24:52.928Z,1.73
2023-01-15T17:27:19.863Z,2.28
2023-01-15T17:29:46.798Z,2.55
2023-01-15T17:32:22.144Z,4.07
2023-01-15T17:34:49.122Z,3.50
2023-01-15T17:37:15.990Z,1.75
2023-01-15T17:39:42.805Z,1.42
2023-01-15T17:42:20.292Z,1.02
2023-01-15T17:44:47.382Z,1.63
2023-01-15T17:47:14.608Z,1.90
2023-01-15T17:49:41.795Z,2.53
2023-01-15T17:52:19.140Z,3.65
2023-01-15T17:55:04.571Z,1.00
2023-01-15T17:57:50.240Z,2.08
2023-01-15T18:00:36.290Z,2.47
2023-01-15T18:03:22.210Z,2.25
2023-01-15T18:05:51.788Z,4.38
2023-01-15T18:08:18.975Z,1.55
2023-01-15T18:10:45.954Z,1.38
2023-01-15T18:13:12.863Z,1.55
2023-01-15T18:15:41.187Z,1.90
2023-01-15T18:18:08.325Z,3.95
2023-01-15T18:20:35.278Z,4.03
2023-01-15T18:23:02.109Z,3.83
2023-01-15T18:25:29.007Z,3.15
2023-01-15T18:27:55.832Z,2.17
2023-01-15T18:30:22.683Z,2.42
2023-01-15T18:32:49.735Z,2.20
2023-01-15T18:35:18.357Z,3.72
2023-01-15T18:37:45.357Z,3.55
2023-01-15T18:40:12.798Z,3.45
2023-01-15T18:42:58.537Z,5.35
2023-01-15T18:45:44.152Z,3.42
2023-01-15T18:48:10.982Z,2.20
2023-01-15T18:50:38.146Z,4.82
2023-01-15T18:53:04.870Z,2.15
2023-01-15T18:55:31.651Z,3.97
2023-01-15T18:57:58.483Z,1.92
2023-01-15T19:00:25.458Z,3.85
2023-01-15T19:02:52.478Z,2.97
2023-01-15T19:05:19.661Z,4.25
2023-01-15T19:07:47.281Z,4.32
2023-01-15T19:10:16.841Z,1.67
2023-01-15T19:12:45.299Z,3.17
2023-01-15T19:15:36.304Z,3.25
2023-01-15T19:18:22.859Z,0.50
2023-01-15T19:20:49.770Z,5.55
2023-01-15T19:23:16.607Z,1.95
2023-01-15T19:25:45.665Z,2.78
2023-01-15T19:28:17.686Z,2.55
2023-01-15T19:31:06.821Z,1.58
2023-01-15T19:33:34.305Z,3.58
2023-01-15T19:36:01.141Z,2.28
2023-01-15T19:38:27.972Z,2.42
2023-01-15T19:41:14.744Z,1.88
2023-01-15T19:44:00.272Z,2.90
2023-01-15T19:46:46.035Z,1.08
2023-01-15T19:49:38.757Z,4.10
2023-01-15T19:52:24.304Z,1.80
2023-01-15T19:54:57.256Z,3.85
2023-01-15T19:57:24.657Z,0.85
2023-01-15T19:59:51.427Z,2.58
2023-01-15T20:02:18.382Z,2.88
2023-01-15T20:04:45.978Z,1.83
2023-01-15T20:07:12.912Z,2.50
2023-01-15T20:09:44.104Z,1.75
2023-01-15T20:12:31.161Z,1.23
2023-01-15T20:14:58.074Z,3.92
2023-01-15T20:17:24.944Z,4.63
2023-01-15T20:19:51.904Z,1.23
2023-01-15T20:22:18.722Z,5.93
2023-01-15T20:24:46.121Z,1.92
2023-01-15T20:27:13.994Z,2.10
2023-01-15T20:29:43.815Z,1.25
2023-01-15T20:32:11.026Z,0.63
2023-01-15T20:34:40.842Z,3.97
2023-01-15T20:37:08.101Z,3.42
2023-01-15T20:39:34.919Z,2.75
2023-01-15T20:42:20.519Z,1.65
2023-01-15T20:44:53.216Z,2.88
2023-01-15T20:47:43.298Z,1.67
2023-01-15T20:50:15.605Z,1.13
2023-01-15T20:52:48.578Z,2.17
2023-01-15T20:55:16.931Z,2.50
2023-01-15T20:57:44.086Z,1.90
2023-01-15T21:00:19.618Z,2.03
2023-01-15T21:02:48.942Z,4.25
2023-01-15T21:05:16.099Z,4.57
2023-01-15T21:07:42.861Z,2.67
2023-01-15T21:10:12.543Z,2.05
2023-01-15T21:12:39.316Z,2.40
2023-01-15T21:15:06.826Z,1.55
2023-01-15T21:17:33.664Z,2.08
2023-01-15T21:20:00.473Z,3.47
2023-01-15T21:22:30.586Z,3.08
2023-01-15T21:24:58.336Z,1.30
2023-01-15T21:27:25.332Z,1.63
2023-01-15T21:29:52.365Z,1.92
2023-01-15T21:32:19.471Z,2.13
2023-01-15T21:34:46.396Z,1.85
2023-01-15T21:37:14.365Z,1.55
2023-01-15T21:39:41.761Z,2.40
2023-01-15T21:42:34.446Z,1.95
2023-01-15T21:45:01.288Z,2.78
2023-01-15T21:47:28.460Z,2.30
2023-01-15T21:49:56.034Z,3.65
2023-01-15T21:52:23.457Z,3.97
2023-01-15T21:54:52.134Z,1.33
2023-01-15T21:57:19.257Z,5.00
2023-01-15T21:59:46.230Z,1.73
2023-01-15T22:02:16.731Z,1.85
2023-01-15T22:04:44.133Z,2.28
2023-01-15T22:07:11.449Z,2.45
2023-01-15T22:09:38.727Z,1.83
2023-01-15T22:12:05.961Z,1.05
2023-01-15T22:14:33.608Z,1.38
2023-01-15T22:17:03.009Z,0.60
2023-01-15T22:19:30.931Z,3.70
2023-01-15T22:22:08.361Z,1.25
2023-01-15T22:24:36.406Z,2.33
2023-01-15T22:27:06.388Z,2.72
2023-01-15T22:29:38.971Z,1.80
2023-01-15T22:32:07.453Z,2.35
2023-01-15T22:34:34.249Z,1.00
2023-01-15T22:37:01.775Z,1.33
2023-01-15T22:39:28.842Z,1.50
2023-01-15T22:42:14.385Z,1.63
2023-01-15T22:44:43.533Z,0.65
2023-01-15T22:47:10.543Z,0.75
2023-01-15T22:49:37.344Z,3.38
2023-01-15T22:52:04.578Z,1.25
2023-01-15T22:54:31.334Z,2.38
2023-01-15T22:56:58.371Z,3.33
2023-01-15T22:59:25.260Z,1.48
2023-01-15T23:01:52.252Z,2.83
2023-01-15T23:04:21.877Z,4.22
2023-01-15T23:06:51.268Z,3.63
2023-01-15T23:09:19.278Z,3.38
2023-01-15T23:11:46.375Z,1.17
2023-01-15T23:14:15.742Z,3.58
2023-01-15T23:16:43.543Z,1.40
2023-01-15T23:19:12.269Z,1.90
2023-01-15T23:21:40.233Z,1.90
2023-01-15T23:24:07.298Z,3.90
2023-01-15T23:26:34.849Z,1.13
2023-01-15T23:29:01.963Z,1.73
2023-01-15T23:31:29.594Z,1.85
2023-01-15T23:33:56.470Z,1.60
2023-01-15T23:36:24.110Z,1.45
2023-01-15T23:38:51.722Z,4.32
2023-01-15T23:41:40.893Z,3.03
2023-01-15T23:44:33.309Z,1.33
2023-01-15T23:47:00.146Z,1.27
2023-01-15T23:49:26.938Z,3.90
2023-01-15T23:51:53.696Z,2.50
2023-01-15T23:54:20.476Z,3.25
2023-01-15T23:56:47.470Z,3.28
2023-01-15T23:59:14.359Z,4.63
